PU5BHV-12 Weather Reports


Display with metric or nautical units.
time (UTC)temp
F
wind
direction
speed
MPH
gust
MPH
rain 1hr
in
rain 24hr
in
rain mn
in
humidity
%
barometer
mb
20221130204852 74 197 0.0 0.0 0.00 1.35 1.35 89 1005.2
20221130204352 75 186 0.0 0.0 0.00 1.35 1.35 89 1005.3
20221130203852 75 186 0.0 0.0 0.00 1.35 1.35 90 1005.1
20221130203352 75 168 0.0 0.0 0.00 1.35 1.35 88 1005.2
20221130202852 75 35 0.0 0.0 0.00 1.35 1.35 89 1005.2
20221130202350 75 35 0.0 0.0 0.00 1.35 1.35 86 1005.2
20221130201848 75 2 0.0 0.0 0.00 1.35 1.35 85 1005.1
20221130201346 75 338 0.0 0.0 0.00 1.35 1.35 87 1005.1
20221130200846 75 328 0.0 0.0 0.00 1.35 1.35 86 1005.2
20221130200345 75 350 0.0 0.0 0.00 1.35 1.35 86 1005.2
20221130195845 75 346 0.0 0.0 0.00 1.35 1.35 87 1005.1
20221130195344 75 34 2.0 2.0 0.00 1.35 1.35 86 1005.1
20221130194842 75 320 0.0 0.0 0.00 1.35 1.35 87 1005.0
20221130194340 75 325 0.0 0.0 0.00 1.35 1.35 88 1005.1
20221130193840 75 338 2.0 2.0 0.00 1.35 1.35 88 1005.2
20221130193339 75 333 0.0 0.0 0.00 1.35 1.35 89 1005.1
20221130192838 74 332 0.0 0.0 0.00 1.35 1.35 89 1005.2
20221130192337 74 329 0.0 1.0 0.00 1.35 1.35 89 1005.1
20221130191835 74 350 0.0 0.0 0.00 1.35 1.35 91 1005.2
20221130191333 74 332 0.0 0.0 0.00 1.35 1.35 92 1005.2
20221130190831 74 353 0.0 0.0 0.00 1.35 1.35 92 1005.3
20221130190331 74 353 0.0 0.0 0.00 1.35 1.35 94 1005.3
20221130185829 74 355 0.0 1.0 0.00 1.35 1.35 93 1005.5
20221130185327 74 342 1.0 1.0 0.00 1.35 1.35 94 1005.4
20221130184826 73 342 0.0 0.0 0.00 1.35 1.35 95 1005.5
20221130184326 73 343 0.0 0.0 0.00 1.35 1.35 97 1005.4
20221130183825 73 342 0.0 0.0 0.00 1.35 1.35 97 1005.5
20221130183324 73 342 0.0 0.0 0.04 1.35 1.35 97 1005.7
20221130182824 72 342 0.0 0.0 0.07 1.34 1.34 97 1005.5
20221130182323 72 343 0.0 0.0 0.11 1.34 1.34 96 1005.7
20221130181822 72 332 0.0 0.0 0.18 1.33 1.33 97 1005.9
20221130181320 71 333 0.0 0.0 0.61 1.32 1.32 96 1005.6
20221130180820 72 320 0.0 0.0 1.25 1.29 1.29 97 1005.6
20221130180319 72 326 0.0 1.0 2.05 1.21 1.21 97 1005.7
20221130175818 73 328 0.0 0.0 1.39 1.08 1.08 96 1005.7
20221130175317 73 336 0.0 1.0 0.07 0.86 0.86 95 1006.2
20221130174816 73 350 0.0 0.0 0.00 0.85 0.85 95 1005.8
20221130174315 73 338 0.0 0.0 0.04 0.85 0.85 96 1005.6
20221130173814 73 338 0.0 1.0 0.11 0.85 0.85 96 1005.6
20221130173313 73 338 0.0 0.0 0.18 0.84 0.84 96 1005.7
20221130172812 73 339 0.0 0.0 0.11 0.83 0.83 97 1005.8
20221130172311 73 338 0.0 0.0 0.07 0.81 0.81 97 1005.9
20221130171810 73 338 0.0 0.0 0.04 0.79 0.79 97 1006.0
20221130171309 74 338 0.0 0.0 0.11 0.79 0.79 97 1006.2
20221130170808 73 338 0.0 0.0 0.07 0.79 0.79 96 1006.3
20221130170308 73 338 0.0 0.0 0.11 0.78 0.78 96 1006.5
20221130165808 74 339 0.0 0.0 0.16 0.78 0.78 96 1006.5
20221130165307 74 338 0.0 0.0 0.11 0.76 0.76 95 1006.3
20221130164807 74 331 0.0 0.0 0.11 0.75 0.75 95 1006.1
20221130164306 74 331 0.0 1.0 0.11 0.74 0.74 95 1006.1
20221130163804 74 330 0.0 0.0 0.11 0.73 0.73 96 1006.1
20221130163304 74 331 0.0 0.0 0.23 0.72 0.72 95 1006.3
20221130162802 74 330 0.0 0.0 0.18 0.70 0.70 95 1006.3
20221130162301 74 340 0.0 0.0 0.07 0.68 0.68 94 1006.4
20221130161800 74 341 0.0 0.0 0.04 0.66 0.66 93 1006.3
20221130161300 74 338 0.0 0.0 0.16 0.66 0.66 93 1006.4
20221130160759 74 6 0.0 0.0 0.16 0.65 0.65 92 1006.3
20221130160259 74 351 0.0 0.0 0.11 0.64 0.64 93 1006.3
20221130155800 74 343 0.0 0.0 0.07 0.62 0.62 94 1006.3
20221130155258 75 25 0.0 1.0 0.07 0.62 0.62 93 1006.2
20221130154758 75 16 0.0 1.0 0.00 0.61 0.61 91 1006.3
20221130154258 75 335 0.0 0.0 0.00 0.61 0.61 90 1006.7
20221130153759 76 43 1.0 1.0 0.00 0.61 0.61 91 1006.5
20221130153259 76 254 0.0 0.0 0.00 0.61 0.61 89 1006.6
20221130152757 77 146 0.0 0.0 0.00 0.61 0.61 91 1006.4
20221130152256 77 328 0.0 0.0 0.00 0.61 0.61 89 1006.6
20221130151754 77 324 0.0 0.0 0.00 0.61 0.61 88 1006.5
20221130151253 77 324 0.0 0.0 0.00 0.61 0.61 84 1006.6
20221130150752 77 327 0.0 0.0 0.00 0.61 0.61 89 1006.7
20221130150251 76 348 0.0 0.0 0.00 0.61 0.61 89 1006.6
20221130145750 76 22 0.0 1.0 0.00 0.61 0.61 89 1006.5
20221130145249 75 323 2.0 2.0 0.00 0.61 0.61 91 1006.6
20221130144747 75 341 0.0 0.0 0.04 0.61 0.61 91 1006.8
20221130144246 75 136 0.0 1.0 0.04 0.61 0.61 93 1006.9
20221130143744 75 21 0.0 0.0 0.00 0.60 0.60 93 1007.1
20221130143243 75 44 1.0 1.0 0.07 0.60 0.60 92 1006.8
20221130142742 75 11 0.0 0.0 0.11 0.60 0.60 92 1006.7
20221130142240 75 11 0.0 0.0 0.04 0.59 0.59 91 1006.7
20221130141740 75 11 0.0 0.0 0.00 0.58 0.58 89 1006.9
20221130141240 76 10 0.0 0.0 0.00 0.58 0.58 93 1007.0
20221130140740 76 9 0.0 0.0 0.00 0.58 0.58 92 1007.1
20221130140239 76 10 0.0 0.0 0.00 0.58 0.58 92 1007.0
20221130135738 75 351 0.0 0.0 0.00 0.58 0.58 90 1007.1
20221130135236 75 4 0.0 0.0 0.07 0.58 0.58 96 1006.8
20221130134736 74 21 0.0 0.0 0.00 0.57 0.57 94 1007.2
20221130134237 73 358 0.0 0.0 0.04 0.57 0.57 93 1007.2
20221130133737 73 354 0.0 0.0 0.04 0.57 0.57 94 1007.1
20221130133236 73 354 0.0 0.0 0.00 0.56 0.56 93 1007.4
20221130132735 73 349 0.0 0.0 0.07 0.56 0.56 94 1007.4
20221130132235 73 350 0.0 0.0 0.07 0.56 0.56 94 1007.5
20221130131733 73 347 0.0 0.0 0.07 0.55 0.55 94 1007.4
20221130131232 73 297 0.0 0.0 0.07 0.55 0.55 95 1007.3
20221130130730 73 264 0.0 0.0 0.00 0.53 0.53 96 1007.3
20221130130230 74 259 0.0 0.0 0.00 0.53 0.53 95 1007.3
20221130125728 74 259 0.0 0.0 0.00 0.53 0.53 94 1007.3
20221130125228 74 259 0.0 0.0 0.00 0.53 0.53 94 1007.2
20221130124727 74 259 0.0 0.0 0.00 0.53 0.53 93 1007.3
20221130124225 74 215 0.0 0.0 0.00 0.53 0.53 94 1007.4
20221130123723 74 181 0.0 0.0 0.00 0.53 0.53 94 1007.3
20221130123224 74 181 0.0 0.0 0.00 0.53 0.53 95 1007.5
20221130122723 74 174 0.0 0.0 0.00 0.53 0.53 94 1007.6
20221130122221 73 171 1.0 2.0 0.00 0.53 0.53 93 1007.7
20221130121719 73 338 0.0 0.0 0.00 0.53 0.53 95 1007.5
20221130121219 73 177 0.0 0.0 0.00 0.53 0.53 95 1007.6
20221130120719 73 175 0.0 0.0 0.00 0.53 0.53 95 1007.7
20221130120218 73 27 0.0 1.0 0.00 0.53 0.53 95 1007.8
20221130115716 73 133 1.0 2.0 0.04 0.53 0.53 97 1007.8
20221130115214 72 21 0.0 1.0 0.04 0.53 0.53 98 1007.8
20221130114714 72 20 0.0 1.0 0.07 0.53 0.53 98 1007.9
20221130114212 71 131 1.0 1.0 0.18 0.53 0.53 98 1007.8
20221130113712 71 39 0.0 0.0 0.11 0.52 0.52 98 1007.8
20221130113210 71 11 0.0 0.0 0.00 0.50 0.50 97 1007.9
20221130112709 71 6 0.0 0.0 0.00 0.50 0.50 97 1007.9
20221130112207 71 27 0.0 0.0 0.00 0.50 0.50 98 1007.8
20221130111705 71 34 0.0 0.0 0.00 0.50 0.50 98 1007.5
20221130111204 71 32 0.0 0.0 0.00 0.50 0.50 98 1007.7
20221130110704 71 30 0.0 0.0 0.04 0.50 0.50 98 1007.8
20221130110204 71 26 0.0 0.0 0.11 0.50 0.50 98 1007.5
20221130105703 71 26 0.0 0.0 0.07 0.49 0.49 98 1007.4
20221130105202 71 96 0.0 1.0 0.11 0.48 0.48 98 1007.8
20221130104702 71 175 0.0 0.0 0.16 0.48 0.48 98 1007.4
20221130104201 71 158 0.0 0.0 0.04 0.46 0.46 98 1007.4
20221130103700 71 160 0.0 0.0 0.00 0.45 0.45 98 1007.3
20221130103159 71 159 0.0 0.0 0.00 0.45 0.45 98 1007.3
20221130102658 71 159 0.0 1.0 0.00 0.45 0.45 97 1007.4
20221130102158 71 158 1.0 1.0 0.00 0.45 0.45 97 1007.4
20221130101657 71 174 0.0 0.0 0.00 0.45 0.45 97 1007.4
20221130101155 71 184 0.0 0.0 0.00 0.45 0.45 98 1007.5
20221130100654 71 189 0.0 0.0 0.00 0.45 0.45 98 1007.3
20221130100154 71 192 0.0 0.0 0.00 0.45 0.45 98 1007.2
20221130095653 71 191 0.0 0.0 0.00 0.45 0.45 99 1007.0
20221130095153 71 185 0.0 1.0 0.00 0.45 0.45 99 1007.1
20221130094652 70 184 0.0 0.0 0.00 0.45 0.45 99 1007.1
20221130094150 70 185 0.0 0.0 0.00 0.45 0.45 99 1007.0
20221130093649 70 161 0.0 0.0 0.00 0.45 0.45 99 1007.0
20221130093147 69 170 0.0 0.0 0.00 0.45 0.45 99 1006.9
20221130092646 69 26 0.0 0.0 0.00 0.45 0.45 99 1006.8
20221130092147 69 343 0.0 0.0 0.00 0.45 0.45 99 1006.8
20221130091646 69 344 0.0 0.0 0.07 0.45 0.45 99 1006.8
20221130091145 69 39 0.0 0.0 0.11 0.45 0.45 99 1006.6
20221130090645 69 16 0.0 0.0 0.11 0.44 0.44 99 1006.6
20221130090144 69 355 0.0 0.0 0.07 0.43 0.43 99 1006.4
20221130085642 69 342 0.0 0.0 0.00 0.42 0.42 99 1006.6
20221130085141 69 342 0.0 0.0 0.00 0.42 0.42 99 1006.4
20221130084640 69 342 0.0 0.0 0.00 0.42 0.42 99 1006.4
20221130084140 69 342 0.0 0.0 0.07 0.42 0.42 99 1006.4
20221130083640 69 342 0.0 0.0 0.00 0.40 0.40 99 1006.3
20221130083139 69 342 0.0 0.0 0.00 0.40 0.40 99 1006.2
20221130082638 69 342 0.0 0.0 0.00 0.40 0.40 99 1006.1
20221130082138 69 342 0.0 0.0 0.00 0.40 0.40 99 1006.3
20221130081637 69 342 0.0 0.0 0.00 0.40 0.40 99 1006.0
20221130081137 69 342 0.0 0.0 0.00 0.40 0.40 99 1006.0
20221130080636 69 342 0.0 0.0 0.00 0.40 0.40 99 1006.2
20221130080136 69 342 0.0 0.0 0.00 0.40 0.40 99 1005.9
20221130075635 69 342 0.0 0.0 0.00 0.40 0.40 99 1006.1
20221130075134 69 342 0.0 0.0 0.04 0.40 0.40 99 1005.8
20221130074633 69 342 0.0 0.0 0.04 0.40 0.40 99 1005.8
20221130074133 69 342 0.0 0.0 0.00 0.40 0.40 99 1005.9
20221130073631 69 342 0.0 0.0 0.07 0.40 0.40 99 1006.0
20221130073130 69 342 0.0 0.0 0.35 0.40 0.40 99 1005.8
20221130072631 69 342 0.0 0.0 0.35 0.39 0.39 99 1005.6
20221130072129 69 343 0.0 0.0 0.18 0.34 0.34 99 1005.8
20221130071628 69 338 0.0 0.0 0.14 0.32 0.32 99 1005.6
20221130071126 69 338 0.0 0.0 0.42 0.31 0.31 99 1005.8
20221130070627 69 338 0.0 0.0 0.59 0.29 0.29 99 1005.5
20221130070125 69 338 0.0 0.0 0.35 0.24 0.24 99 1005.8
20221130065626 69 338 0.0 0.0 0.07 0.19 0.19 99 1005.7
20221130065124 69 338 0.0 0.0 0.23 0.26 0.26 99 1005.6
20221130064622 69 341 0.0 0.0 0.16 0.22 0.22 99 1005.5
20221130064122 69 338 0.0 0.0 0.11 0.20 0.20 99 1005.6
20221130063621 69 338 0.0 0.0 0.23 0.20 0.20 99 1005.5
20221130063120 69 338 0.0 0.0 0.54 0.18 0.18 99 1005.7
20221130062619 69 338 0.0 0.0 0.42 0.15 0.15 99 1005.8
20221130062117 69 338 0.0 0.0 0.18 0.09 0.09 99 1005.5
20221130061616 69 338 0.0 0.0 0.16 0.07 0.07 98 1006.0
20221130061115 69 338 0.0 0.0 0.04 0.05 0.05 98 1005.8
20221130060613 69 338 0.0 0.0 0.00 0.05 0.05 98 1005.7
20221130060111 69 338 0.0 1.0 0.00 0.05 0.05 98 1005.8
20221130055611 69 322 0.0 0.0 0.00 0.05 0.05 98 1005.9
20221130055107 69 322 0.0 0.0 0.00 0.05 0.05 98 1005.9
20221130054605 69 323 0.0 0.0 0.00 0.05 0.05 98 1005.9
20221130054103 69 323 0.0 0.0 0.00 0.05 0.05 98 1006.0
20221130053601 69 323 0.0 0.0 0.00 0.05 0.05 98 1005.9
20221130053100 69 323 0.0 0.0 0.00 0.05 0.05 97 1006.1
20221130052600 69 323 0.0 0.0 0.07 0.05 0.05 97 1006.2
20221130052058 69 323 0.0 0.0 0.18 0.05 0.05 97 1006.1
20221130051557 69 321 1.0 1.0 0.16 0.03 0.03 96 1006.3
20221130051056 69 47 0.0 0.0 0.04 0.02 0.02 97 1006.4
20221130050555 70 47 0.0 0.0 0.07 0.01 0.01 96 1006.4
20221130050054 70 47 0.0 0.0 0.07 0.01 0.01 96 1006.2
20221130045553 70 52 0.0 0.0 0.00 0.00 0.00 94 1006.5
20221130045053 70 37 1.0 2.0 0.00 0.00 0.00 93 1006.5
20221130044551 71 340 1.0 1.0 0.00 0.00 0.00 92 1006.4
20221130044049 71 322 3.0 5.0 0.00 0.00 0.00 92 1006.5
20221130043549 70 341 0.0 1.0 0.00 0.00 0.00 92 1006.6
20221130043049 70 164 0.0 0.0 0.00 0.00 0.00 93 1006.6
20221130042547 70 325 0.0 0.0 0.00 0.00 0.00 94 1006.6
20221130042045 70 4 0.0 0.0 0.00 0.00 0.00 93 1006.9
20221130041544 70 340 2.0 3.0 0.00 0.00 0.00 93 1006.8
20221130041044 70 354 0.0 0.0 0.00 0.00 0.00 95 1007.0
20221130040543 69 98 1.0 1.0 0.00 0.00 0.00 97 1007.0
20221130040041 69 334 2.0 2.0 0.00 1.26 1.26 98 1007.1
20221130035540 69 330 4.0 5.0 0.00 1.26 1.26 99 1007.2
20221130035039 69 337 0.0 0.0 0.07 1.26 1.26 99 1007.3
20221130034539 69 27 0.0 1.0 0.30 1.26 1.26 99 1007.5
20221130034038 69 337 0.0 0.0 0.47 1.24 1.24 99 1007.4
20221130033537 69 337 0.0 0.0 0.42 1.22 1.22 99 1007.5
20221130033036 69 337 0.0 0.0 0.11 1.16 1.16 99 1007.6
20221130032536 69 338 0.0 0.0 0.04 1.15 1.15 99 1007.6
20221130032035 69 338 0.0 0.0 0.07 1.14 1.14 99 1007.7
20221130031534 69 338 0.0 0.0 0.07 1.14 1.14 99 1007.8
20221130031034 69 335 0.0 0.0 0.23 1.16 1.16 98 1007.8
20221130030532 69 335 0.0 0.0 0.16 1.15 1.15 99 1007.8
20221130030031 69 335 0.0 0.0 0.23 1.13 1.13 98 1007.9
20221130025530 69 335 0.0 0.0 0.54 1.11 1.11 98 1008.1
20221130025029 69 334 0.0 0.0 0.59 1.09 1.09 98 1008.0
20221130024529 69 334 0.0 0.0 0.42 1.03 1.03 98 1008.0
20221130024029 69 334 0.0 0.0 0.26 0.99 0.99 99 1008.2
20221130023528 69 334 0.0 0.0 0.07 0.96 0.96 99 1008.1
20221130023026 69 334 0.0 0.0 0.00 0.94 0.94 99 1008.0
20221130022525 69 342 0.0 0.0 0.00 0.94 0.94 98 1008.1
20221130022023 69 342 0.0 0.0 0.00 0.94 0.94 98 1008.4
20221130021521 69 342 0.0 0.0 0.00 0.94 0.94 98 1008.5
20221130021022 69 342 0.0 0.0 0.00 0.94 0.94 98 1008.4
20221130020521 69 342 0.0 0.0 0.00 0.94 0.94 98 1008.6
20221130020019 69 342 0.0 0.0 0.00 0.94 0.94 98 1008.4
20221130015518 69 342 0.0 0.0 0.00 0.94 0.94 98 1008.6
20221130015016 69 342 0.0 0.0 0.00 0.94 0.94 98 1008.5
20221130014515 69 342 0.0 0.0 0.00 0.94 0.94 98 1008.5
20221130014013 69 342 0.0 0.0 0.00 0.94 0.94 98 1008.4
20221130013512 69 342 0.0 0.0 0.00 0.94 0.94 98 1008.4
20221130013011 69 342 0.0 0.0 0.00 0.94 0.94 98 1008.7
20221130012511 69 342 0.0 0.0 0.00 0.94 0.94 98 1008.6
20221130012010 69 342 0.0 0.0 0.04 0.94 0.94 98 1008.5
20221130011508 69 341 0.0 0.0 0.04 0.94 0.94 98 1008.6
20221130011007 69 341 0.0 0.0 0.00 0.94 0.94 98 1008.7
20221130010506 69 341 0.0 0.0 0.00 0.94 0.94 98 1008.7
20221130010004 69 341 0.0 0.0 0.00 0.94 0.94 98 1008.5
20221130005503 69 341 0.0 0.0 0.00 0.94 0.94 98 1008.7
20221130005002 69 341 0.0 0.0 0.00 0.94 0.94 98 1008.6
20221130004500 69 341 0.0 0.0 0.00 0.94 0.94 98 1008.7
20221130003958 69 341 0.0 0.0 0.00 0.94 0.94 98 1008.5
20221130003457 70 341 0.0 0.0 0.00 0.94 0.94 98 1008.5
20221130002956 70 342 0.0 0.0 0.00 0.94 0.94 98 1008.5
20221130002454 70 342 0.0 0.0 0.00 0.94 0.94 98 1008.3
20221130001953 70 341 0.0 0.0 0.00 0.94 0.94 98 1008.4
20221130001451 70 341 0.0 0.0 0.00 0.94 0.94 98 1008.5
20221130000950 70 341 0.0 0.0 0.00 0.94 0.94 98 1008.5
20221130000449 70 341 0.0 0.0 0.00 0.94 0.94 97 1008.7
20221129235948 70 341 0.0 0.0 0.00 0.94 0.94 97 1008.6
20221129235447 70 334 0.0 0.0 0.00 0.94 0.94 98 1008.7
20221129234947 70 334 0.0 0.0 0.00 0.94 0.94 98 1008.7
20221129234446 70 334 0.0 0.0 0.00 0.94 0.94 97 1008.5
20221129233944 70 334 0.0 0.0 0.00 0.94 0.94 97 1008.6
20221129233442 70 334 0.0 0.0 0.00 0.94 0.94 97 1008.4
20221129232942 70 334 0.0 0.0 0.00 0.94 0.94 97 1008.7
20221129232440 70 334 0.0 0.0 0.00 0.94 0.94 97 1008.3
20221129231938 70 334 0.0 0.0 0.00 0.94 0.94 97 1008.6
20221129231436 70 334 0.0 0.0 0.00 0.94 0.94 97 1008.5
20221129230934 70 334 0.0 0.0 0.00 0.94 0.94 97 1008.4
20221129230432 70 335 0.0 0.0 0.00 0.94 0.94 97 1008.5
20221129225932 70 335 0.0 0.0 0.00 0.94 0.94 97 1008.5
20221129225430 70 335 0.0 0.0 0.00 0.94 0.94 97 1008.3
20221129224928 70 333 0.0 0.0 0.00 0.94 0.94 97 1008.4
20221129224428 70 333 0.0 0.0 0.00 0.94 0.94 97 1008.3
20221129223927 70 332 0.0 0.0 0.00 0.94 0.94 97 1008.2
20221129223425 70 332 0.0 0.0 0.11 0.94 0.94 96 1008.1
20221129222924 71 333 0.0 0.0 0.30 0.94 0.94 96 1008.4
20221129222422 71 315 0.0 0.0 0.18 0.92 0.92 95 1008.0
20221129221922 71 340 0.0 0.0 0.00 0.89 0.89 95 1007.8
20221129221420 71 340 0.0 0.0 0.00 0.89 0.89 94 1007.6
20221129220919 71 340 0.0 0.0 0.00 0.89 0.89 94 1007.8
20221129220417 71 340 0.0 0.0 0.00 0.89 0.89 94 1007.9
20221129215917 71 340 0.0 0.0 0.00 0.89 0.89 94 1007.8
20221129215416 71 340 0.0 0.0 0.00 0.89 0.89 93 1007.7
20221129214915 71 340 0.0 0.0 0.00 0.89 0.89 92 1007.8
20221129214411 71 340 0.0 0.0 0.00 0.89 0.89 93 1007.6
20221129213910 71 340 0.0 0.0 0.00 0.89 0.89 93 1007.7
20221129213409 72 336 0.0 0.0 0.00 0.89 0.89 92 1007.4
20221129212907 72 335 1.0 1.0 0.00 0.89 0.89 90 1007.7
20221129212405 72 1 0.0 0.0 0.00 0.89 0.89 91 1007.7
20221129211905 72 331 0.0 0.0 0.00 0.89 0.89 92 1007.5
20221129211403 72 329 1.0 1.0 0.00 0.89 0.89 92 1007.4
20221129210902 73 327 0.0 0.0 0.00 0.89 0.89 92 1007.4
20221129210401 72 327 2.0 2.0 0.00 0.89 0.89 92 1007.2
20221129205900 72 331 0.0 0.0 0.00 0.89 0.89 93 1007.5
20221129205359 72 333 1.0 2.0 0.00 0.89 0.89 92 1007.2